createdAt,value
2019-03-06T00:00:28.557Z,99.60
2019-03-06T00:03:00.542Z,99.60
2019-03-06T00:05:31.016Z,99.50
2019-03-06T00:08:01.367Z,99.40
2019-03-06T00:10:32.050Z,99.60
2019-03-06T00:13:02.460Z,99.70
2019-03-06T00:15:44.326Z,99.60
2019-03-06T00:18:14.676Z,99.60
2019-03-06T00:20:45.205Z,99.70
2019-03-06T00:23:15.564Z,99.50
2019-03-06T00:25:46.400Z,99.50
2019-03-06T00:28:17.063Z,99.50
2019-03-06T00:30:47.458Z,99.50
2019-03-06T00:33:17.806Z,99.40
2019-03-06T00:35:49.953Z,99.60
2019-03-06T00:38:20.317Z,99.60
2019-03-06T00:41:08.601Z,99.50
2019-03-06T00:43:38.948Z,99.40
2019-03-06T00:46:09.602Z,99.40
2019-03-06T00:48:40.074Z,99.60
2019-03-06T00:51:10.423Z,99.60
2019-03-06T00:53:40.789Z,99.40
2019-03-06T00:56:11.169Z,99.40
2019-03-06T00:58:41.808Z,99.50
2019-03-06T01:01:12.328Z,99.40
2019-03-06T01:03:42.701Z,99.40
2019-03-06T01:06:13.181Z,99.30
2019-03-06T01:08:43.553Z,99.20
2019-03-06T01:11:13.952Z,99.00
2019-03-06T01:13:44.305Z,99.10
2019-03-06T01:16:14.803Z,98.80
2019-03-06T01:18:45.168Z,98.80
2019-03-06T01:21:15.721Z,98.80
2019-03-06T01:23:46.113Z,98.70
2019-03-06T01:26:16.473Z,98.70
2019-03-06T01:28:46.872Z,98.50
2019-03-06T01:31:17.227Z,98.40
2019-03-06T01:34:12.415Z,98.40
2019-03-06T01:37:06.994Z,98.40
2019-03-06T01:39:59.642Z,98.40
2019-03-06T01:42:43.953Z,98.50
2019-03-06T01:45:15.422Z,98.40
2019-03-06T01:47:45.771Z,98.50
2019-03-06T01:50:16.561Z,98.50
2019-03-06T01:52:47.237Z,98.50
2019-03-06T01:55:17.662Z,98.50
2019-03-06T01:57:48.026Z,98.70
2019-03-06T02:00:19.434Z,98.60
2019-03-06T02:02:50.094Z,98.70
2019-03-06T02:05:20.525Z,98.60
2019-03-06T02:07:50.955Z,98.50
2019-03-06T02:10:21.329Z,98.80
2019-03-06T02:12:51.677Z,98.80
2019-03-06T02:15:23.525Z,98.90
2019-03-06T02:17:53.863Z,98.80
2019-03-06T02:20:24.597Z,99.10
2019-03-06T02:22:54.948Z,99.10
2019-03-06T02:25:25.325Z,99.10
2019-03-06T02:27:55.661Z,99.10
2019-03-06T02:30:26.044Z,99.20
2019-03-06T02:32:56.378Z,99.40
2019-03-06T02:35:26.741Z,99.10
2019-03-06T02:37:57.622Z,99.30
2019-03-06T02:40:29.034Z,99.30
2019-03-06T02:42:59.408Z,99.20
2019-03-06T02:45:30.093Z,99.30
2019-03-06T02:48:00.453Z,99.70
2019-03-06T02:50:30.793Z,99.40
2019-03-06T02:53:01.246Z,99.60
2019-03-06T02:55:31.589Z,99.40
2019-03-06T02:58:39.465Z,99.50
2019-03-06T03:01:24.727Z,99.40
2019-03-06T03:04:16.818Z,99.60
2019-03-06T03:07:06.088Z,99.50
2019-03-06T03:09:36.543Z,99.70
2019-03-06T03:12:06.881Z,99.50
2019-03-06T03:14:37.270Z,99.70
2019-03-06T03:17:07.773Z,99.50
2019-03-06T03:19:38.121Z,99.80
2019-03-06T03:22:09.382Z,99.70
2019-03-06T03:24:39.794Z,99.80
2019-03-06T03:27:10.137Z,99.90
2019-03-06T03:29:40.512Z,99.60
2019-03-06T03:32:10.854Z,99.70
2019-03-06T03:34:41.259Z,99.90
2019-03-06T03:37:11.642Z,99.80
2019-03-06T03:39:41.977Z,99.60
2019-03-06T03:42:12.314Z,99.70
2019-03-06T03:44:42.801Z,99.90
2019-03-06T03:47:13.137Z,99.90
2019-03-06T03:49:43.514Z,99.90
2019-03-06T03:52:13.896Z,99.90
2019-03-06T03:54:44.237Z,99.90
2019-03-06T03:57:14.869Z,99.90
2019-03-06T03:59:45.341Z,99.90
2019-03-06T04:02:15.696Z,99.90
2019-03-06T04:04:46.423Z,99.90
2019-03-06T04:07:17.102Z,99.90
2019-03-06T04:09:47.449Z,99.90
2019-03-06T04:12:17.809Z,99.90
2019-03-06T04:14:48.160Z,99.90
2019-03-06T04:17:18.553Z,99.90
2019-03-06T04:19:48.907Z,99.90
2019-03-06T04:22:19.311Z,99.90
2019-03-06T04:24:49.719Z,99.90
2019-03-06T04:27:20.186Z,99.90
2019-03-06T04:29:50.521Z,99.90
2019-03-06T04:32:20.890Z,99.90
2019-03-06T04:34:51.238Z,99.90
2019-03-06T04:37:21.610Z,99.90
2019-03-06T04:39:51.973Z,99.90
2019-03-06T04:42:22.342Z,99.90
2019-03-06T04:44:52.801Z,99.90
2019-03-06T04:47:23.181Z,99.90
2019-03-06T04:49:53.536Z,99.90
2019-03-06T04:52:24.265Z,99.90
2019-03-06T04:54:54.621Z,99.90
2019-03-06T04:57:25.007Z,99.90
2019-03-06T04:59:55.356Z,99.90
2019-03-06T05:02:25.714Z,99.90
2019-03-06T05:04:56.121Z,99.90
2019-03-06T05:07:26.657Z,99.90
2019-03-06T05:09:57.117Z,99.90
2019-03-06T05:12:27.453Z,99.90
2019-03-06T05:14:58.891Z,99.90
2019-03-06T05:17:48.210Z,99.90
2019-03-06T05:20:18.635Z,99.90
2019-03-06T05:22:48.997Z,99.90
2019-03-06T05:25:31.288Z,99.90
2019-03-06T05:28:01.621Z,99.90
2019-03-06T05:30:32.081Z,99.90
2019-03-06T05:33:02.496Z,99.90
2019-03-06T05:36:04.521Z,99.90
2019-03-06T05:38:45.706Z,99.90
2019-03-06T05:41:16.493Z,99.90
2019-03-06T05:43:46.842Z,99.90
2019-03-06T05:46:17.309Z,99.90
2019-03-06T05:48:48.645Z,99.90
2019-03-06T05:51:18.985Z,99.90
2019-03-06T05:53:49.360Z,99.90
2019-03-06T05:56:19.702Z,99.90
2019-03-06T05:58:50.034Z,99.90
2019-03-06T06:01:20.399Z,99.90
2019-03-06T06:03:50.933Z,99.90
2019-03-06T06:06:21.349Z,99.90
2019-03-06T06:08:51.809Z,99.90
2019-03-06T06:11:22.145Z,99.90
2019-03-06T06:13:52.489Z,99.90
2019-03-06T06:16:22.850Z,99.90
2019-03-06T06:18:53.177Z,99.90
2019-03-06T06:21:41.256Z,99.90
2019-03-06T06:24:14.568Z,99.90
2019-03-06T06:26:44.927Z,99.90
2019-03-06T06:29:15.273Z,99.90
2019-03-06T06:31:45.667Z,99.90
2019-03-06T06:34:16.317Z,99.90
2019-03-06T06:36:46.773Z,99.90
2019-03-06T06:39:17.117Z,99.90
2019-03-06T06:41:47.522Z,99.90
2019-03-06T06:44:17.883Z,99.90
2019-03-06T06:46:48.334Z,99.90
2019-03-06T06:49:18.666Z,99.90
2019-03-06T06:52:17.989Z,99.90
2019-03-06T06:54:57.209Z,99.90
2019-03-06T06:58:16.405Z,99.90
2019-03-06T07:01:16.897Z,99.90
2019-03-06T07:04:16.118Z,99.90
2019-03-06T07:07:00.233Z,99.90
2019-03-06T07:10:05.033Z,99.50
2019-03-06T07:12:43.473Z,98.90
2019-03-06T07:15:24.958Z,97.50
2019-03-06T07:18:13.301Z,98.40
2019-03-06T07:21:05.277Z,97.10
2019-03-06T07:23:53.397Z,97.70
2019-03-06T07:26:37.606Z,97.30
2019-03-06T07:29:23.017Z,97.70
2019-03-06T07:32:09.250Z,97.70
2019-03-06T07:34:48.966Z,97.80
2019-03-06T07:37:35.598Z,97.80
2019-03-06T07:40:12.433Z,97.90
2019-03-06T07:42:48.530Z,98.20
2019-03-06T07:46:02.298Z,98.00
2019-03-06T07:49:11.957Z,97.80
2019-03-06T07:52:07.218Z,97.40
2019-03-06T07:54:46.790Z,97.10
2019-03-06T07:57:34.066Z,97.30
2019-03-06T08:00:08.337Z,96.80
2019-03-06T08:03:01.907Z,97.10
2019-03-06T08:05:32.311Z,97.50
2019-03-06T08:08:03.750Z,97.30
2019-03-06T08:10:35.738Z,96.70
2019-03-06T08:13:14.429Z,97.00
2019-03-06T08:15:50.025Z,97.40
2019-03-06T08:18:51.546Z,97.00
2019-03-06T08:21:59.009Z,97.00
2019-03-06T08:24:46.858Z,97.10
2019-03-06T08:27:17.274Z,96.60
2019-03-06T08:29:47.617Z,96.20
2019-03-06T08:32:34.977Z,95.50
2019-03-06T08:35:06.431Z,95.20
2019-03-06T08:37:48.190Z,94.50
2019-03-06T08:40:18.528Z,94.10
2019-03-06T08:42:48.914Z,94.10
2019-03-06T08:45:21.402Z,93.80
2019-03-06T08:48:06.601Z,93.20
2019-03-06T08:50:52.274Z,92.50
2019-03-06T08:53:40.618Z,92.30
2019-03-06T08:56:48.425Z,93.70
2019-03-06T08:59:27.087Z,92.60
2019-03-06T09:02:23.557Z,93.50
2019-03-06T09:05:22.293Z,92.90
2019-03-06T09:08:01.925Z,93.60
2019-03-06T09:10:41.137Z,93.40
2019-03-06T09:13:20.285Z,92.20
2019-03-06T09:16:08.613Z,91.30
2019-03-06T09:18:55.649Z,92.60
2019-03-06T09:21:39.445Z,91.20
2019-03-06T09:24:27.655Z,90.90
2019-03-06T09:27:10.782Z,90.00
2019-03-06T09:29:47.450Z,90.60
2019-03-06T09:32:36.789Z,88.80
2019-03-06T09:35:25.003Z,87.20
2019-03-06T09:38:20.549Z,89.30
2019-03-06T09:41:16.125Z,88.50
2019-03-06T09:44:04.128Z,85.80
2019-03-06T09:46:56.305Z,84.40
2019-03-06T09:49:48.529Z,86.70
2019-03-06T09:52:41.013Z,83.70
2019-03-06T09:55:39.497Z,87.60
2019-03-06T09:58:28.761Z,88.00
2019-03-06T10:01:33.153Z,83.60
2019-03-06T10:04:28.724Z,82.90
2019-03-06T10:07:17.183Z,82.80
2019-03-06T10:10:06.468Z,81.00
2019-03-06T10:12:59.141Z,81.40
2019-03-06T10:15:39.679Z,80.60
2019-03-06T10:18:14.125Z,80.80
2019-03-06T10:20:44.465Z,82.00
2019-03-06T10:23:14.853Z,79.80
2019-03-06T10:25:45.195Z,79.40
2019-03-06T10:28:15.857Z,80.00
2019-03-06T10:30:46.188Z,76.10
2019-03-06T10:33:16.569Z,78.60
2019-03-06T10:35:46.932Z,79.50
2019-03-06T10:38:17.344Z,79.20
2019-03-06T10:40:47.759Z,77.40
2019-03-06T10:43:18.481Z,75.80
2019-03-06T10:45:48.823Z,78.20
2019-03-06T10:48:19.278Z,74.90
2019-03-06T10:50:49.635Z,73.40
2019-03-06T10:53:20.073Z,74.20
2019-03-06T10:55:50.422Z,77.10
2019-03-06T10:58:20.793Z,77.50
2019-03-06T11:00:53.534Z,75.60
2019-03-06T11:03:34.927Z,76.80
2019-03-06T11:06:05.833Z,73.10
2019-03-06T11:08:36.282Z,72.30
2019-03-06T11:11:07.785Z,74.00
2019-03-06T11:13:39.175Z,73.70
2019-03-06T11:16:10.789Z,76.10
2019-03-06T11:18:42.434Z,74.20
2019-03-06T11:21:12.769Z,72.20
2019-03-06T11:23:43.145Z,71.00
2019-03-06T11:26:13.587Z,73.10
2019-03-06T11:28:44.093Z,70.80
2019-03-06T11:31:14.934Z,70.20
2019-03-06T11:33:45.828Z,73.20
2019-03-06T11:36:16.669Z,69.10
2019-03-06T11:38:47.169Z,69.60
2019-03-06T11:41:17.597Z,70.10
2019-03-06T11:43:47.981Z,69.90
2019-03-06T11:46:20.446Z,71.60
2019-03-06T11:48:50.917Z,70.70
2019-03-06T11:51:21.285Z,68.70
2019-03-06T11:53:51.756Z,68.00
2019-03-06T11:56:22.133Z,69.20
2019-03-06T11:58:53.020Z,69.40
2019-03-06T12:01:24.976Z,68.20
2019-03-06T12:03:55.976Z,69.90
2019-03-06T12:06:26.311Z,67.40
2019-03-06T12:08:56.721Z,68.00
2019-03-06T12:11:27.901Z,69.10
2019-03-06T12:13:58.249Z,70.60
2019-03-06T12:16:28.634Z,66.30
2019-03-06T12:18:58.994Z,68.90
2019-03-06T12:21:29.793Z,66.20
2019-03-06T12:24:01.214Z,68.70
2019-03-06T12:26:31.847Z,70.20
2019-03-06T12:29:02.189Z,67.70
2019-03-06T12:31:32.586Z,68.60
2019-03-06T12:34:02.950Z,69.10
2019-03-06T12:36:33.313Z,66.00
2019-03-06T12:39:03.930Z,71.00
2019-03-06T12:41:34.541Z,69.40
2019-03-06T12:44:10.315Z,67.60
2019-03-06T12:46:37.437Z,69.00
2019-03-06T12:49:12.514Z,68.60
2019-03-06T12:51:42.902Z,68.40
2019-03-06T12:54:13.303Z,67.40
2019-03-06T12:56:43.654Z,70.90
2019-03-06T12:59:14.034Z,71.60
2019-03-06T13:01:44.407Z,69.40
2019-03-06T13:04:14.804Z,69.40
2019-03-06T13:06:45.196Z,68.40
2019-03-06T13:09:18.551Z,68.00
2019-03-06T13:11:49.081Z,68.70
2019-03-06T13:14:19.580Z,70.20
2019-03-06T13:16:49.981Z,70.60
2019-03-06T13:19:20.391Z,72.00
2019-03-06T13:21:50.753Z,71.20
2019-03-06T13:24:21.115Z,69.00
2019-03-06T13:26:51.480Z,68.80
2019-03-06T13:29:22.074Z,69.20
2019-03-06T13:31:52.413Z,70.10
2019-03-06T13:34:50.371Z,72.50
2019-03-06T13:37:13.689Z,72.10
2019-03-06T13:39:45.549Z,71.70
2019-03-06T13:42:15.901Z,71.80
2019-03-06T13:44:46.275Z,70.90
2019-03-06T13:47:16.629Z,70.00
2019-03-06T13:49:47.094Z,71.00
2019-03-06T13:52:17.537Z,72.40
2019-03-06T13:54:49.342Z,71.00
2019-03-06T13:57:19.785Z,71.50
2019-03-06T13:59:50.164Z,72.90
2019-03-06T14:02:20.861Z,71.70
2019-03-06T14:04:54.562Z,71.40
2019-03-06T14:07:25.202Z,71.90
2019-03-06T14:09:55.573Z,71.70
2019-03-06T14:12:25.963Z,72.40
2019-03-06T14:14:56.425Z,71.90
2019-03-06T14:17:27.077Z,72.60
2019-03-06T14:19:57.557Z,73.10
2019-03-06T14:22:28.038Z,72.80
2019-03-06T14:24:58.493Z,72.70
2019-03-06T14:27:28.830Z,74.40
2019-03-06T14:29:59.281Z,74.40
2019-03-06T14:32:29.633Z,74.00
2019-03-06T14:35:00.021Z,73.00
2019-03-06T14:37:31.156Z,73.70
2019-03-06T14:40:09.373Z,74.00
2019-03-06T14:42:33.863Z,73.00
2019-03-06T14:45:04.589Z,73.10
2019-03-06T14:47:34.917Z,73.60
2019-03-06T14:50:06.081Z,75.10
2019-03-06T14:52:36.429Z,73.70
2019-03-06T14:55:07.802Z,73.60
2019-03-06T14:57:38.356Z,74.30
2019-03-06T15:00:11.145Z,74.50
2019-03-06T15:02:41.648Z,74.30
2019-03-06T15:05:12.034Z,74.10
2019-03-06T15:07:42.390Z,74.20
2019-03-06T15:10:13.693Z,74.80
2019-03-06T15:12:44.032Z,75.10
2019-03-06T15:15:15.238Z,74.10
2019-03-06T15:17:45.583Z,74.20
2019-03-06T15:20:17.882Z,74.60
2019-03-06T15:22:49.661Z,74.40
2019-03-06T15:25:21.392Z,75.60
2019-03-06T15:27:51.729Z,75.00
2019-03-06T15:30:22.243Z,74.70
2019-03-06T15:32:52.673Z,75.10
2019-03-06T15:35:23.791Z,75.20
2019-03-06T15:37:54.137Z,75.80
2019-03-06T15:40:26.410Z,75.80
2019-03-06T15:42:56.845Z,76.20
2019-03-06T15:45:29.699Z,76.40
2019-03-06T15:48:00.690Z,76.40
2019-03-06T15:50:31.200Z,76.20
2019-03-06T15:53:04.023Z,77.00
2019-03-06T15:55:34.585Z,76.50
2019-03-06T15:58:05.037Z,76.60
2019-03-06T16:00:45.422Z,77.10
2019-03-06T16:03:09.201Z,77.70
2019-03-06T16:05:39.893Z,77.70
2019-03-06T16:08:10.557Z,77.30
2019-03-06T16:10:41.770Z,77.10
2019-03-06T16:13:13.173Z,78.10
2019-03-06T16:15:43.666Z,77.70
2019-03-06T16:18:14.020Z,78.10
2019-03-06T16:20:44.410Z,78.20
2019-03-06T16:23:16.160Z,78.00
2019-03-06T16:25:46.593Z,77.90
2019-03-06T16:28:17.316Z,78.00
2019-03-06T16:30:47.890Z,78.60
2019-03-06T16:33:18.446Z,78.40
2019-03-06T16:35:48.849Z,78.40
2019-03-06T16:38:19.525Z,78.70
2019-03-06T16:40:50.049Z,79.00
2019-03-06T16:43:21.558Z,79.30
2019-03-06T16:45:51.925Z,79.70
2019-03-06T16:48:23.366Z,79.40
2019-03-06T16:50:54.018Z,80.10
2019-03-06T16:53:24.452Z,79.90
2019-03-06T16:55:54.941Z,80.30
2019-03-06T16:58:25.622Z,80.30
2019-03-06T17:00:56.215Z,80.80
2019-03-06T17:03:26.701Z,80.40
2019-03-06T17:05:57.104Z,80.40
2019-03-06T17:08:27.573Z,81.00
2019-03-06T17:10:58.049Z,81.00
2019-03-06T17:13:28.806Z,80.90
2019-03-06T17:16:00.241Z,81.20
2019-03-06T17:18:30.573Z,81.10
2019-03-06T17:21:00.949Z,81.40
2019-03-06T17:23:31.351Z,81.20
2019-03-06T17:26:01.725Z,81.50
2019-03-06T17:28:32.386Z,81.40
2019-03-06T17:31:03.136Z,81.30
2019-03-06T17:33:33.517Z,81.40
2019-03-06T17:36:03.853Z,81.60
2019-03-06T17:38:34.226Z,81.80
2019-03-06T17:41:04.557Z,81.70
2019-03-06T17:43:35.345Z,82.00
2019-03-06T17:46:05.894Z,82.10
2019-03-06T17:48:37.245Z,82.00
2019-03-06T17:51:07.718Z,81.90
2019-03-06T17:53:38.125Z,82.00
2019-03-06T17:56:08.485Z,82.00
2019-03-06T17:58:38.884Z,82.00
2019-03-06T18:01:16.715Z,81.90
2019-03-06T18:04:12.000Z,82.40
2019-03-06T18:06:42.377Z,82.40
2019-03-06T18:09:13.367Z,82.80
2019-03-06T18:11:43.777Z,82.90
2019-03-06T18:14:14.372Z,82.80
2019-03-06T18:16:44.734Z,83.20
2019-03-06T18:19:15.329Z,82.80
2019-03-06T18:21:45.690Z,82.80
2019-03-06T18:24:16.448Z,82.90
2019-03-06T18:26:47.128Z,83.20
2019-03-06T18:29:18.198Z,83.20
2019-03-06T18:31:48.537Z,83.30
2019-03-06T18:34:18.884Z,83.20
2019-03-06T18:36:49.237Z,83.40
2019-03-06T18:39:38.653Z,83.10
2019-03-06T18:42:09.075Z,83.00
2019-03-06T18:44:39.870Z,83.30
2019-03-06T18:47:10.237Z,83.20
2019-03-06T18:49:40.625Z,82.90
2019-03-06T18:52:11.009Z,84.10
2019-03-06T18:54:41.355Z,82.90
2019-03-06T18:57:13.352Z,83.70
2019-03-06T18:59:43.901Z,83.00
2019-03-06T19:02:14.637Z,83.00
2019-03-06T19:04:45.005Z,83.10
2019-03-06T19:07:15.418Z,82.70
2019-03-06T19:09:45.857Z,83.20
2019-03-06T19:12:17.676Z,83.50
2019-03-06T19:14:48.029Z,82.70
2019-03-06T19:17:20.203Z,82.80
2019-03-06T19:19:50.457Z,82.40
2019-03-06T19:22:20.860Z,82.50
2019-03-06T19:24:51.273Z,82.40
2019-03-06T19:27:21.649Z,82.90
2019-03-06T19:29:52.033Z,82.60
2019-03-06T19:32:22.674Z,82.10
2019-03-06T19:34:53.037Z,82.60
2019-03-06T19:37:23.393Z,82.10
2019-03-06T19:40:05.361Z,82.60
2019-03-06T19:42:36.657Z,82.40
2019-03-06T19:45:07.382Z,82.30
2019-03-06T19:47:37.758Z,82.20
2019-03-06T19:50:10.953Z,82.60
2019-03-06T19:52:41.314Z,82.50
2019-03-06T19:55:12.037Z,82.60
2019-03-06T19:58:02.698Z,81.80
2019-03-06T20:00:34.021Z,82.10
2019-03-06T20:03:04.833Z,82.10
2019-03-06T20:05:36.184Z,82.10
2019-03-06T20:08:13.558Z,82.00
2019-03-06T20:10:43.920Z,81.70
2019-03-06T20:13:14.329Z,82.20
2019-03-06T20:15:44.704Z,82.10
2019-03-06T20:18:15.429Z,81.90
2019-03-06T20:20:45.973Z,82.40
2019-03-06T20:23:16.365Z,81.50
2019-03-06T20:25:46.717Z,82.30
2019-03-06T20:28:17.510Z,81.70
2019-03-06T20:30:47.848Z,81.70
2019-03-06T20:33:18.413Z,81.60
2019-03-06T20:35:48.765Z,81.90
2019-03-06T20:38:19.228Z,81.80
2019-03-06T20:40:49.583Z,81.50
2019-03-06T20:43:20.693Z,81.40
2019-03-06T20:45:51.993Z,81.70
2019-03-06T20:48:22.869Z,81.60
2019-03-06T20:50:53.240Z,82.10
2019-03-06T20:53:23.673Z,81.60
2019-03-06T20:55:54.050Z,81.40
2019-03-06T20:58:25.485Z,82.10
2019-03-06T21:00:55.842Z,81.40
2019-03-06T21:03:26.532Z,81.60
2019-03-06T21:05:56.894Z,81.70
2019-03-06T21:08:46.314Z,82.30
2019-03-06T21:11:16.653Z,81.40
2019-03-06T21:13:47.028Z,81.80
2019-03-06T21:16:17.369Z,81.70
2019-03-06T21:18:47.750Z,81.90
2019-03-06T21:21:18.121Z,82.20
2019-03-06T21:23:48.473Z,81.80
2019-03-06T21:26:18.974Z,82.30
2019-03-06T21:28:49.372Z,81.80
2019-03-06T21:31:20.047Z,82.60
2019-03-06T21:33:50.409Z,82.80
2019-03-06T21:36:22.898Z,82.20
2019-03-06T21:38:53.262Z,82.30
2019-03-06T21:41:23.650Z,82.20
2019-03-06T21:43:54.075Z,82.50
2019-03-06T21:46:24.501Z,81.80
2019-03-06T21:48:54.866Z,82.00
2019-03-06T21:51:25.365Z,81.80
2019-03-06T21:53:55.695Z,82.50
2019-03-06T21:56:26.181Z,83.00
2019-03-06T21:58:56.830Z,83.40
2019-03-06T22:01:27.638Z,82.80
2019-03-06T22:03:57.990Z,82.20
2019-03-06T22:06:28.454Z,83.20
2019-03-06T22:08:58.829Z,82.70
2019-03-06T22:11:29.177Z,82.60
2019-03-06T22:13:59.558Z,82.90
2019-03-06T22:16:29.905Z,83.00
2019-03-06T22:19:00.983Z,83.20
2019-03-06T22:21:31.550Z,82.90
2019-03-06T22:24:02.270Z,83.90
2019-03-06T22:26:32.634Z,84.10
2019-03-06T22:29:03.025Z,84.00
2019-03-06T22:31:33.390Z,83.60
2019-03-06T22:34:03.778Z,83.60
2019-03-06T22:36:34.157Z,84.10
2019-03-06T22:39:05.986Z,83.70
2019-03-06T22:41:36.388Z,84.50
2019-03-06T22:44:06.788Z,84.70
2019-03-06T22:46:37.177Z,84.80
2019-03-06T22:49:07.528Z,84.50
2019-03-06T22:51:37.905Z,84.70
2019-03-06T22:54:08.241Z,85.20
2019-03-06T22:56:38.615Z,84.00
2019-03-06T22:59:08.977Z,85.50
2019-03-06T23:01:41.069Z,84.50
2019-03-06T23:04:11.521Z,84.90
2019-03-06T23:06:41.921Z,84.50
2019-03-06T23:09:13.829Z,85.00
2019-03-06T23:11:44.338Z,84.80
2019-03-06T23:14:14.720Z,84.80
2019-03-06T23:16:45.064Z,85.70
2019-03-06T23:19:15.417Z,84.80
2019-03-06T23:21:45.768Z,85.40
2019-03-06T23:24:16.145Z,85.30
2019-03-06T23:26:47.558Z,85.70
2019-03-06T23:29:18.290Z,85.00
2019-03-06T23:31:50.426Z,85.40
2019-03-06T23:34:20.801Z,85.60
2019-03-06T23:36:51.140Z,86.00
2019-03-06T23:39:21.534Z,86.50
2019-03-06T23:41:51.893Z,87.00
2019-03-06T23:44:22.647Z,86.60
2019-03-06T23:46:52.978Z,88.30
2019-03-06T23:49:23.795Z,88.60
2019-03-06T23:52:01.944Z,89.00
2019-03-06T23:54:32.654Z,88.70
2019-03-06T23:57:03.023Z,88.50
2019-03-06T23:59:33.425Z,89.00
